Time;durP1;ratioP1;P1;durP2;ratioP2;P2;SDS_P1;SDS_P2;PMS_P1;PMS_P2;Temp;Humidity;BMP_temperature;BMP_pressure;BME280_temperature;BME280_humidity;BME280_pressure;Samples;Min_cycle;Max_cycle;Signal;HPM_P1;HPM_P2
2023/09/05 00:01:51;;;;;;;2.90;2.70;;;24.20;66.50;;;;;;222818;1256;22511;-50
2023/09/05 00:06:53;;;;;;;2.90;2.70;;;24.10;66.50;;;;;;222672;1266;22517;-51
2023/09/05 00:11:56;;;;;;;3.90;2.70;;;24.10;66.90;;;;;;222414;1259;24381;-54
2023/09/05 00:16:59;;;;;;;3.30;2.90;;;24.20;66.50;;;;;;222455;1260;202344;-53
2023/09/05 00:22:02;;;;;;;5.80;3.00;;;24.20;66.40;;;;;;222672;1260;22972;-52
2023/09/05 00:27:13;;;;;;;3.00;2.80;;;24.20;66.20;;;;;;222579;1263;22513;-52
2023/09/05 00:32:18;;;;;;;2.50;2.30;;;24.30;66.40;;;;;;222521;1263;22601;-53
2023/09/05 00:37:23;;;;;;;2.90;2.60;;;24.30;66.00;;;;;;222699;1263;22519;-52
2023/09/05 00:42:26;;;;;;;4.60;2.30;;;24.30;65.90;;;;;;222172;1255;22521;-52
2023/09/05 00:47:30;;;;;;;2.80;2.50;;;24.40;66.10;;;;;;222862;1265;23906;-51
2023/09/05 00:52:33;;;;;;;3.60;3.30;;;24.30;65.70;;;;;;222604;1268;25307;-53
2023/09/05 00:57:38;;;;;;;2.70;2.50;;;24.30;65.80;;;;;;222619;1260;22508;-52
2023/09/05 01:02:41;;;;;;;3.00;2.80;;;24.20;66.20;;;;;;222460;1261;22610;-52
2023/09/05 01:07:53;;;;;;;2.90;2.70;;;24.10;66.70;;;;;;222260;1268;24228;-51
2023/09/05 01:12:59;;;;;;;;;;;24.10;66.50;;;;;;222450;1268;25352;-53
2023/09/05 01:18:03;;;;;;;2.80;2.60;;;24.10;66.50;;;;;;222566;1246;24318;-51
2023/09/05 01:23:17;;;;;;;3.20;2.80;;;24.10;66.50;;;;;;222264;1268;22524;-54
2023/09/05 01:28:23;;;;;;;6.30;2.90;;;24.00;66.90;;;;;;223098;1253;24221;-52
2023/09/05 01:33:25;;;;;;;5.60;3.70;;;24.10;66.30;;;;;;223878;1263;24196;-51
2023/09/05 01:38:28;;;;;;;3.60;3.30;;;24.10;66.40;;;;;;222931;1267;22516;-52
2023/09/05 01:43:31;;;;;;;4.70;3.40;;;24.10;66.40;;;;;;222498;1269;23470;-54
2023/09/05 01:48:34;;;;;;;4.40;2.40;;;24.10;66.80;;;;;;222521;1266;23898;-52
2023/09/05 01:53:36;;;;;;;4.30;2.60;;;24.10;66.50;;;;;;222426;1267;24268;-51
2023/09/05 01:58:39;;;;;;;2.00;1.80;;;24.00;66.60;;;;;;222826;1266;24644;-52
2023/09/05 02:03:42;;;;;;;2.80;2.50;;;23.90;66.50;;;;;;222540;1267;22609;-51
2023/09/05 02:08:46;;;;;;;2.90;2.70;;;24.00;66.60;;;;;;222406;1266;24391;-51
2023/09/05 02:13:49;;;;;;;2.60;2.40;;;24.00;66.50;;;;;;222433;1266;22650;-53
2023/09/05 02:18:52;;;;;;;2.70;2.50;;;24.00;66.60;;;;;;222385;1268;22513;-52
2023/09/05 02:23:55;;;;;;;6.10;2.90;;;23.90;66.60;;;;;;222320;1263;22534;-52
2023/09/05 02:28:58;;;;;;;4.30;3.00;;;24.00;66.50;;;;;;222352;1263;22515;-52
2023/09/05 02:34:01;;;;;;;2.90;2.60;;;24.00;66.40;;;;;;222435;1265;22534;-51
2023/09/05 02:39:04;;;;;;;3.60;2.40;;;24.00;66.30;;;;;;222733;1268;22645;-52
2023/09/05 02:44:09;;;;;;;2.40;2.20;;;24.10;66.40;;;;;;222471;1260;22563;-53
2023/09/05 02:49:12;;;;;;;2.70;2.40;;;23.90;66.80;;;;;;222851;1268;22730;-51
2023/09/05 02:54:14;;;;;;;3.90;2.70;;;24.00;66.40;;;;;;222747;1260;22517;-50
2023/09/05 02:59:17;;;;;;;1.90;1.80;;;24.00;66.90;;;;;;222298;1269;22641;-53
2023/09/05 03:04:20;;;;;;;3.60;2.80;;;24.00;66.50;;;;;;222182;1266;22800;-51
2023/09/05 03:09:23;;;;;;;2.90;2.50;;;24.00;66.50;;;;;;222670;1268;22513;-52
2023/09/05 03:14:25;;;;;;;2.60;2.40;;;23.90;66.40;;;;;;222708;1266;22514;-50
2023/09/05 03:19:28;;;;;;;2.40;2.20;;;23.90;66.60;;;;;;222495;1266;23892;-51
2023/09/05 03:24:33;;;;;;;2.60;2.50;;;24.00;66.40;;;;;;222489;1268;24171;-57
2023/09/05 03:29:36;;;;;;;2.10;2.00;;;23.90;66.60;;;;;;222488;1266;22662;-51
2023/09/05 03:34:48;;;;;;;2.40;2.20;;;23.90;66.40;;;;;;222561;1266;22602;-52
2023/09/05 03:39:51;;;;;;;2.20;2.10;;;23.90;66.60;;;;;;222580;1259;23729;-52
2023/09/05 03:44:53;;;;;;;2.90;2.00;;;23.90;66.40;;;;;;222460;1268;22530;-50
2023/09/05 03:49:56;;;;;;;2.50;2.30;;;23.90;66.50;;;;;;222609;1266;25366;-52
2023/09/05 03:54:59;;;;;;;3.00;2.50;;;23.90;66.50;;;;;;222372;1266;22640;-51
2023/09/05 04:00:03;;;;;;;2.30;2.10;;;23.80;66.60;;;;;;222531;1268;22528;-52
2023/09/05 04:05:15;;;;;;;2.20;2.00;;;23.80;66.70;;;;;;222627;1266;22511;-52
2023/09/05 04:10:18;;;;;;;3.00;2.60;;;23.90;66.60;;;;;;222828;1266;23194;-51
2023/09/05 04:15:22;;;;;;;2.30;2.10;;;23.80;66.60;;;;;;222546;1266;22543;-52
2023/09/05 04:20:25;;;;;;;2.50;2.30;;;23.80;66.70;;;;;;222794;1267;23806;-52
2023/09/05 04:25:27;;;;;;;3.50;2.50;;;23.80;66.70;;;;;;222726;1266;25328;-51
2023/09/05 04:30:30;;;;;;;4.40;2.70;;;23.70;66.70;;;;;;222327;1264;24299;-53
2023/09/05 04:35:38;;;;;;;5.00;2.70;;;23.70;66.70;;;;;;222316;1261;22739;-54
2023/09/05 04:40:40;;;;;;;6.00;3.20;;;23.80;66.90;;;;;;222981;1261;24205;-51
2023/09/05 04:45:53;;;;;;;4.00;2.60;;;23.70;66.60;;;;;;222662;1260;22653;-53
2023/09/05 04:50:56;;;;;;;5.20;2.90;;;23.80;66.70;;;;;;222580;1266;25322;-53
2023/09/05 04:56:03;;;;;;;2.70;2.50;;;23.80;66.70;;;;;;226782;1261;23016;-53
2023/09/05 05:01:06;;;;;;;3.30;2.60;;;23.80;65.70;;;;;;222512;1263;22606;-53
2023/09/05 05:06:09;;;;;;;2.60;2.50;;;23.80;66.20;;;;;;222324;1267;24169;-50
2023/09/05 05:11:12;;;;;;;2.70;2.10;;;23.80;66.30;;;;;;222705;1266;22530;-48
2023/09/05 05:16:15;;;;;;;2.60;2.20;;;23.80;66.50;;;;;;222647;1269;22529;-50
2023/09/05 05:21:18;;;;;;;4.90;2.70;;;23.70;66.40;;;;;;222434;1268;24221;-50
2023/09/05 05:26:20;;;;;;;2.80;2.10;;;23.70;66.30;;;;;;222275;1257;24180;-52
2023/09/05 05:31:23;;;;;;;2.60;2.00;;;23.70;66.30;;;;;;222608;1263;22533;-50
2023/09/05 05:36:26;;;;;;;2.30;2.10;;;23.70;66.30;;;;;;222527;1268;22541;-53
2023/09/05 05:41:29;;;;;;;2.50;2.30;;;23.80;66.20;;;;;;222493;1261;22522;-52
2023/09/05 05:46:32;;;;;;;4.90;4.10;;;23.80;67.00;;;;;;222424;1263;22530;-53
2023/09/05 05:51:37;;;;;;;10.30;4.10;;;23.70;66.80;;;;;;222309;1268;22567;-52
2023/09/05 05:56:39;;;;;;;5.00;4.30;;;23.80;66.70;;;;;;222540;1263;24872;-54
2023/09/05 06:01:42;;;;;;;5.20;3.90;;;23.80;67.20;;;;;;222035;1263;22524;-51
2023/09/05 06:06:48;;;;;;;6.90;4.00;;;23.90;67.60;;;;;;222301;1268;25465;-52
2023/09/05 06:11:52;;;;;;;7.40;4.30;;;24.00;67.00;;;;;;222522;1263;23006;-50
2023/09/05 06:16:56;;;;;;;4.60;3.60;;;24.10;66.90;;;;;;222683;1260;24228;-54
2023/09/05 06:21:59;;;;;;;9.10;3.80;;;24.20;66.80;;;;;;222290;1266;22608;-53
2023/09/05 06:27:02;;;;;;;9.20;3.30;;;24.10;67.10;;;;;;221402;1271;22550;-53
2023/09/05 06:32:05;;;;;;;9.10;3.60;;;24.10;67.30;;;;;;221539;1272;25338;-52
2023/09/05 06:37:09;;;;;;;8.70;3.70;;;24.20;67.10;;;;;;221611;1267;23075;-55
2023/09/05 06:42:16;;;;;;;7.80;3.50;;;24.10;67.50;;;;;;221435;1266;22541;-53
2023/09/05 06:47:19;;;;;;;10.00;3.60;;;24.10;66.90;;;;;;221714;1266;25339;-53
2023/09/05 06:52:22;;;;;;;8.00;4.00;;;24.10;66.70;;;;;;221318;1269;22646;-50
2023/09/05 06:57:28;;;;;;;7.00;3.30;;;24.10;66.50;;;;;;222056;1268;22538;-50
2023/09/05 07:02:30;;;;;;;14.40;3.80;;;24.20;66.30;;;;;;222546;1257;22636;-54
2023/09/05 07:07:33;;;;;;;7.70;3.90;;;24.30;66.70;;;;;;222084;1250;24217;-54
2023/09/05 07:12:36;;;;;;;10.70;4.40;;;24.20;66.30;;;;;;222272;1266;22562;-55
2023/09/05 07:17:39;;;;;;;9.40;3.80;;;24.20;66.00;;;;;;222389;1261;22688;-55
2023/09/05 07:22:43;;;;;;;7.20;3.50;;;24.10;66.10;;;;;;222515;1264;22511;-54
2023/09/05 07:27:45;;;;;;;14.10;5.10;;;24.20;65.60;;;;;;222429;1257;22755;-54
2023/09/05 07:32:49;;;;;;;8.80;4.70;;;24.10;65.50;;;;;;222055;1269;23396;-54
2023/09/05 07:37:51;;;;;;;11.70;4.60;;;24.10;65.40;;;;;;222928;1268;24318;-55
2023/09/05 07:42:55;;;;;;;10.90;4.00;;;24.30;65.00;;;;;;222808;1269;24261;-54
2023/09/05 07:47:58;;;;;;;3.50;3.10;;;24.30;64.70;;;;;;222630;1247;24212;-55
2023/09/05 07:53:00;;;;;;;10.60;3.90;;;24.30;64.60;;;;;;222184;1266;24225;-53
2023/09/05 07:58:04;;;;;;;14.30;6.40;;;24.30;64.80;;;;;;222318;1268;22516;-53
2023/09/05 08:03:06;;;;;;;16.10;7.00;;;24.20;66.50;;;;;;222333;1269;22521;-52
2023/09/05 08:08:09;;;;;;;15.00;6.10;;;24.20;67.60;;;;;;222766;1268;22561;-54
2023/09/05 08:13:14;;;;;;;11.40;5.30;;;24.30;68.00;;;;;;221920;1268;25478;-53
2023/09/05 08:18:17;;;;;;;10.10;6.30;;;24.30;66.10;;;;;;222922;1268;22546;-54
2023/09/05 08:23:20;;;;;;;11.30;5.80;;;24.50;65.50;;;;;;222654;1264;25284;-54
2023/09/05 08:28:26;;;;;;;10.40;5.30;;;24.50;65.10;;;;;;222381;1266;22945;-52
2023/09/05 08:33:30;;;;;;;11.30;5.90;;;24.50;64.90;;;;;;222653;1268;22527;-54
2023/09/05 08:38:32;;;;;;;10.50;5.10;;;24.40;65.00;;;;;;222685;1268;22528;-52
2023/09/05 08:43:36;;;;;;;8.10;4.40;;;24.50;64.20;;;;;;222718;1265;22596;-54
2023/09/05 08:48:38;;;;;;;9.70;4.60;;;24.60;63.60;;;;;;222945;1268;26067;-53
2023/09/05 08:54:00;;;;;;;11.50;5.30;;;24.60;63.50;;;;;;222780;1269;22689;-53
2023/09/05 08:59:05;;;;;;;10.10;4.60;;;24.60;63.60;;;;;;223001;1267;24205;-53
2023/09/05 09:04:08;;;;;;;11.30;4.50;;;24.60;63.30;;;;;;222683;1268;22628;-52
2023/09/05 09:09:31;;;;;;;8.00;4.70;;;24.60;63.30;;;;;;222000;1269;22639;-56
2023/09/05 09:14:35;;;;;;;8.30;4.30;;;24.70;62.90;;;;;;222723;1268;22538;-52
2023/09/05 09:19:38;;;;;;;7.40;3.90;;;24.70;62.70;;;;;;222207;1261;23924;-55
2023/09/05 09:24:41;;;;;;;5.40;4.00;;;24.70;61.20;;;;;;222536;1266;22537;-51
2023/09/05 09:29:55;;;;;;;4.80;3.70;;;24.30;56.40;;;;;;222295;1264;26555;-51
2023/09/05 09:34:58;;;;;;;3.80;3.10;;;24.50;53.80;;;;;;222874;1263;24885;-54
2023/09/05 09:40:05;;;;;;;5.80;3.10;;;24.30;53.50;;;;;;221928;1268;22505;-53
2023/09/05 09:45:09;;;;;;;4.90;3.30;;;24.50;52.40;;;;;;222484;1266;25274;-52
2023/09/05 09:50:12;;;;;;;6.50;3.40;;;24.60;53.00;;;;;;222329;1266;24194;-53
2023/09/05 09:55:17;;;;;;;7.40;4.10;;;24.60;52.70;;;;;;222638;1267;22801;-54
2023/09/05 10:00:20;;;;;;;4.60;3.00;;;24.70;52.60;;;;;;222769;1266;22705;-54
2023/09/05 10:05:26;;;;;;;6.20;3.00;;;24.70;52.00;;;;;;222529;1268;22517;-53
2023/09/05 10:10:30;;;;;;;3.30;2.70;;;24.70;51.80;;;;;;221987;1268;22530;-52
2023/09/05 10:15:35;;;;;;;4.10;3.00;;;24.80;51.30;;;;;;222193;1268;22538;-51
2023/09/05 10:20:40;;;;;;;4.40;2.90;;;24.80;51.60;;;;;;222008;1267;22610;-54
2023/09/05 10:25:43;;;;;;;5.80;3.00;;;24.90;51.40;;;;;;222495;1264;25387;-53
2023/09/05 10:30:50;;;;;;;4.50;3.40;;;24.90;51.80;;;;;;222169;1268;22555;-53
2023/09/05 10:35:53;;;;;;;5.30;3.40;;;25.10;51.10;;;;;;222629;1268;23135;-55
2023/09/05 10:40:56;;;;;;;8.60;3.60;;;24.80;50.10;;;;;;222645;1261;25430;-55
2023/09/05 10:46:00;;;;;;;8.80;3.00;;;25.00;50.40;;;;;;222624;1267;22524;-52
2023/09/05 10:51:08;;;;;;;3.80;2.70;;;25.00;50.20;;;;;;222405;1267;24260;-52
2023/09/05 10:56:40;;;;;;;4.20;3.00;;;25.10;50.30;;;;;;222538;1266;22537;-52
2023/09/05 11:01:48;;;;;;;5.00;3.30;;;25.20;50.50;;;;;;222477;1264;22586;-53
2023/09/05 11:06:59;;;;;;;3.80;3.00;;;25.40;50.30;;;;;;222296;1248;22654;-54
2023/09/05 11:12:05;;;;;;;5.10;3.20;;;25.50;50.00;;;;;;222129;1260;23919;-52
2023/09/05 11:17:13;;;;;;;3.80;3.10;;;25.60;50.20;;;;;;221804;1260;22573;-51
2023/09/05 11:22:25;;;;;;;6.70;3.30;;;25.60;50.30;;;;;;230100;1247;22277;-52
2023/09/05 11:27:29;;;;;;;5.10;3.40;;;25.70;49.70;;;;;;230077;1260;22286;-54
2023/09/05 11:32:35;;;;;;;3.50;3.10;;;25.90;49.70;;;;;;230062;1260;22342;-54
2023/09/05 11:37:37;;;;;;;5.60;2.70;;;26.10;49.80;;;;;;230062;1260;22309;-51
2023/09/05 11:42:40;;;;;;;6.50;3.30;;;26.30;48.90;;;;;;228528;1253;22577;-54
2023/09/05 11:47:44;;;;;;;6.90;3.70;;;26.20;49.40;;;;;;230003;1260;22296;-54
2023/09/05 11:52:51;;;;;;;7.60;3.10;;;26.20;49.50;;;;;;229983;1251;22282;-54
2023/09/05 11:57:56;;;;;;;4.30;3.30;;;26.20;49.50;;;;;;230014;1260;22274;-53
2023/09/05 12:03:01;;;;;;;3.70;3.10;;;26.20;49.30;;;;;;230034;1260;22356;-52
2023/09/05 12:08:06;;;;;;;4.00;3.50;;;26.20;49.60;;;;;;229955;1260;22261;-52
2023/09/05 12:13:40;;;;;;;3.70;3.30;;;26.20;49.20;;;;;;229850;1260;22423;-52
2023/09/05 12:18:43;;;;;;;4.20;3.00;;;26.30;49.40;;;;;;227125;1260;195506;-51
2023/09/05 12:23:49;;;;;;;4.20;3.30;;;26.30;49.20;;;;;;221995;1260;22530;-54
2023/09/05 12:28:58;;;;;;;5.40;3.20;;;26.10;50.10;;;;;;229968;1260;22537;-52
2023/09/05 12:34:00;;;;;;;4.20;3.50;;;26.10;49.80;;;;;;230012;1260;23543;-50
2023/09/05 12:39:03;;;;;;;4.80;3.30;;;26.40;49.30;;;;;;229899;1247;22322;-52
2023/09/05 12:44:06;;;;;;;3.50;3.20;;;26.30;49.40;;;;;;229977;1260;22438;-53
2023/09/05 12:49:10;;;;;;;5.70;3.10;;;26.50;49.00;;;;;;230050;1260;23148;-53
2023/09/05 12:54:13;;;;;;;4.60;4.00;;;26.60;49.20;;;;;;230104;1260;22352;-54
2023/09/05 12:59:17;;;;;;;5.00;3.80;;;26.60;49.00;;;;;;229982;1247;22417;-55
2023/09/05 13:04:20;;;;;;;4.80;3.30;;;26.40;49.50;;;;;;230383;1260;22321;-53
2023/09/05 13:09:24;;;;;;;6.40;3.40;;;26.50;49.40;;;;;;230147;1250;22291;-53
2023/09/05 13:14:27;;;;;;;6.40;4.90;;;26.50;49.80;;;;;;230080;1260;22262;-53
2023/09/05 13:19:29;;;;;;;4.90;3.90;;;26.50;49.20;;;;;;229879;1260;22280;-54
2023/09/05 13:24:32;;;;;;;6.50;3.80;;;26.60;50.70;;;;;;230104;1260;22298;-52
2023/09/05 13:29:35;;;;;;;7.80;4.30;;;26.50;49.30;;;;;;223745;1260;22527;-52
2023/09/05 13:34:37;;;;;;;5.70;3.70;;;26.10;50.30;;;;;;230169;1249;22253;-51
2023/09/05 13:39:40;;;;;;;4.20;3.80;;;26.10;50.10;;;;;;229820;1260;22255;-51
2023/09/05 13:44:42;;;;;;;6.30;3.30;;;26.50;49.40;;;;;;229911;1260;22374;-54
2023/09/05 13:49:45;;;;;;;4.80;3.70;;;26.50;50.10;;;;;;230122;1253;22476;-53
2023/09/05 13:54:47;;;;;;;5.50;3.50;;;26.40;49.30;;;;;;229984;1249;22386;-55
2023/09/05 13:59:51;;;;;;;7.70;3.50;;;26.30;50.00;;;;;;229734;1247;22319;-54
2023/09/05 14:04:53;;;;;;;5.50;3.50;;;26.20;49.90;;;;;;229775;1249;22779;-54
2023/09/05 14:09:56;;;;;;;4.10;3.30;;;26.30;49.60;;;;;;230042;1247;22356;-54
2023/09/05 14:14:59;;;;;;;4.40;3.80;;;26.10;49.80;;;;;;230021;1260;23222;-55
2023/09/05 14:20:02;;;;;;;5.50;3.40;;;26.30;49.60;;;;;;229998;1247;22361;-54
2023/09/05 14:25:05;;;;;;;4.00;3.50;;;26.10;49.60;;;;;;230374;1247;22360;-55
2023/09/05 14:30:09;;;;;;;4.10;3.60;;;26.20;49.40;;;;;;230088;1247;23959;-54
2023/09/05 14:35:12;;;;;;;3.50;3.20;;;26.40;48.50;;;;;;230168;1260;22292;-53
2023/09/05 14:40:15;;;;;;;4.30;3.50;;;26.40;48.90;;;;;;230089;1250;22314;-55
2023/09/05 14:45:17;;;;;;;5.30;3.80;;;26.20;49.30;;;;;;230120;1247;22301;-53
2023/09/05 14:50:21;;;;;;;5.60;3.70;;;26.20;49.00;;;;;;230135;1250;22272;-55
2023/09/05 14:55:25;;;;;;;5.90;3.60;;;26.00;49.10;;;;;;230103;1249;22459;-52
2023/09/05 15:00:28;;;;;;;4.60;3.90;;;25.90;49.60;;;;;;222381;1246;22630;-54
2023/09/05 15:05:33;;;;;;;5.10;3.70;;;25.90;49.30;;;;;;229922;1260;22222;-54
2023/09/05 15:10:36;;;;;;;6.50;3.60;;;26.00;49.00;;;;;;229873;1244;22483;-53
2023/09/05 15:15:39;;;;;;;4.90;3.80;;;26.00;48.60;;;;;;230181;1247;23098;-55
2023/09/05 15:20:41;;;;;;;4.10;3.70;;;26.20;48.40;;;;;;230023;1260;22928;-54
2023/09/05 15:25:44;;;;;;;3.80;3.00;;;26.20;48.50;;;;;;230110;1247;23568;-54
2023/09/05 15:30:47;;;;;;;5.80;4.00;;;26.00;48.80;;;;;;230056;1260;22447;-52
2023/09/05 15:35:59;;;;;;;9.40;3.90;;;25.90;49.00;;;;;;230028;1257;22969;-54
2023/09/05 15:41:01;;;;;;;5.00;3.70;;;25.70;50.00;;;;;;229760;1249;23321;-49
2023/09/05 15:46:04;;;;;;;7.20;3.70;;;25.70;49.80;;;;;;230043;1253;22279;-48
2023/09/05 15:51:07;;;;;;;3.60;3.30;;;25.70;50.00;;;;;;230152;1245;22340;-49
2023/09/05 15:56:10;;;;;;;4.40;3.80;;;25.70;50.80;;;;;;229935;1247;24205;-49
2023/09/05 16:01:13;;;;;;;5.40;3.30;;;25.70;50.40;;;;;;230101;1251;22334;-48
2023/09/05 16:06:15;;;;;;;4.40;3.40;;;25.50;50.50;;;;;;230035;1247;22283;-51
2023/09/05 16:11:18;;;;;;;12.80;4.50;;;25.50;50.50;;;;;;230099;1247;22314;-51
2023/09/05 16:16:21;;;;;;;11.90;4.20;;;25.50;50.80;;;;;;230062;1253;22369;-51
2023/09/05 16:21:25;;;;;;;13.90;4.00;;;25.50;51.10;;;;;;230072;1247;22433;-48
2023/09/05 16:26:30;;;;;;;9.80;3.80;;;25.60;51.40;;;;;;230078;1260;22396;-49
2023/09/05 16:31:34;;;;;;;14.60;4.80;;;25.60;51.30;;;;;;229839;1260;22265;-47
2023/09/05 16:36:40;;;;;;;12.10;5.90;;;25.60;51.60;;;;;;230067;1260;22704;-55
2023/09/05 16:41:43;;;;;;;35.10;10.80;;;25.60;51.70;;;;;;229888;1260;22279;-54
2023/09/05 16:46:45;;;;;;;35.20;11.20;;;25.50;51.20;;;;;;229709;1252;22368;-56
2023/09/05 16:51:48;;;;;;;23.40;9.40;;;25.40;51.60;;;;;;230021;1254;22476;-52
2023/09/05 16:56:51;;;;;;;15.70;8.10;;;25.60;51.10;;;;;;230357;1260;22451;-53
2023/09/05 17:01:53;;;;;;;17.60;8.20;;;25.40;51.80;;;;;;230109;1260;22263;-53
2023/09/05 17:06:56;;;;;;;16.20;6.90;;;25.40;52.10;;;;;;230370;1260;23166;-53
2023/09/05 17:11:59;;;;;;;12.30;6.10;;;25.30;52.70;;;;;;230361;1260;22266;-54
2023/09/05 17:17:03;;;;;;;14.50;5.20;;;25.30;52.90;;;;;;230112;1260;23921;-52
2023/09/05 17:22:07;;;;;;;7.40;4.50;;;25.20;52.90;;;;;;230126;1260;22354;-51
2023/09/05 17:27:11;;;;;;;7.50;4.60;;;25.20;53.00;;;;;;230106;1252;22396;-51
2023/09/05 17:32:14;;;;;;;6.40;5.10;;;25.20;53.10;;;;;;230146;1260;22760;-53
2023/09/05 17:37:18;;;;;;;6.90;4.00;;;25.40;53.00;;;;;;230117;1247;22408;-57
2023/09/05 17:42:22;;;;;;;4.80;4.10;;;25.50;53.20;;;;;;229901;1260;22328;-51
2023/09/05 17:47:25;;;;;;;8.60;4.20;;;25.50;53.00;;;;;;230015;1254;22308;-57
2023/09/05 17:52:28;;;;;;;7.80;4.60;;;25.60;53.60;;;;;;230139;1260;22346;-58
2023/09/05 17:57:33;;;;;;;11.60;4.10;;;25.60;53.60;;;;;;230011;1247;22292;-56
2023/09/05 18:02:37;;;;;;;6.10;3.90;;;25.60;53.70;;;;;;229954;1260;22318;-58
2023/09/05 18:07:41;;;;;;;10.10;4.00;;;25.40;53.40;;;;;;230027;1260;22279;-58
2023/09/05 18:12:45;;;;;;;5.30;4.60;;;25.40;54.00;;;;;;229983;1260;22336;-58
2023/09/05 18:17:48;;;;;;;5.40;4.20;;;25.40;53.90;;;;;;230117;1260;22337;-59
2023/09/05 18:22:52;;;;;;;5.80;4.10;;;25.40;54.30;;;;;;229944;1260;22422;-59
2023/09/05 18:27:56;;;;;;;8.00;4.20;;;25.40;54.20;;;;;;230002;1247;22269;-58
2023/09/05 18:32:59;;;;;;;5.10;4.00;;;25.40;54.50;;;;;;229948;1257;22263;-59
2023/09/05 18:38:03;;;;;;;10.80;5.20;;;25.30;54.10;;;;;;229813;1260;23894;-59
2023/09/05 18:43:07;;;;;;;7.80;4.90;;;25.40;53.90;;;;;;229938;1247;22273;-57
2023/09/05 18:48:11;;;;;;;10.10;5.10;;;25.40;53.30;;;;;;230101;1260;22588;-65
2023/09/05 18:53:18;;;;;;;26.10;7.00;;;25.20;52.60;;;;;;229820;1260;22393;-61
2023/09/05 18:58:24;;;;;;;10.90;5.20;;;25.10;52.90;;;;;;225632;1247;23069;-61
2023/09/05 19:03:30;;;;;;;9.40;6.10;;;25.00;52.70;;;;;;227174;1247;24197;-61
2023/09/05 19:08:35;;;;;;;7.90;5.40;;;25.00;52.30;;;;;;230090;1260;23074;-49
2023/09/05 19:13:42;;;;;;;11.80;5.70;;;25.00;52.70;;;;;;229964;1260;22300;-48
2023/09/05 19:18:46;;;;;;;16.30;5.80;;;25.00;53.10;;;;;;221494;1254;24771;-49
2023/09/05 19:23:51;;;;;;;10.60;5.40;;;25.00;54.00;;;;;;229933;1256;22295;-53
2023/09/05 19:28:57;;;;;;;13.40;6.00;;;25.00;53.70;;;;;;229782;1256;23094;-54
2023/09/05 19:34:01;;;;;;;17.20;6.40;;;25.00;53.80;;;;;;229876;1254;22388;-54
2023/09/05 19:39:09;;;;;;;14.70;7.60;;;25.10;53.30;;;;;;229592;1256;22400;-55
2023/09/05 19:44:15;;;;;;;23.30;6.80;;;25.20;54.20;;;;;;229500;1256;22270;-55
2023/09/05 19:49:19;;;;;;;9.10;6.60;;;25.20;54.80;;;;;;229839;1253;22383;-54
2023/09/05 19:54:24;;;;;;;12.30;7.10;;;25.30;55.40;;;;;;229722;1256;22276;-56
2023/09/05 19:59:28;;;;;;;16.90;6.50;;;25.30;55.50;;;;;;229794;1257;22282;-55
2023/09/05 20:04:32;;;;;;;12.90;5.90;;;25.20;55.20;;;;;;229684;1260;22369;-55
2023/09/05 20:09:38;;;;;;;10.00;6.40;;;25.10;54.90;;;;;;229732;1255;22292;-55
2023/09/05 20:14:42;;;;;;;11.70;6.50;;;25.10;55.50;;;;;;230015;1251;22235;-54
2023/09/05 20:19:45;;;;;;;7.80;5.60;;;25.10;54.80;;;;;;229686;1256;22283;-56
2023/09/05 20:24:49;;;;;;;12.20;6.20;;;25.10;54.90;;;;;;229513;1256;22364;-56
2023/09/05 20:29:52;;;;;;;11.10;6.20;;;25.00;55.20;;;;;;229659;1260;22261;-56
2023/09/05 20:34:55;;;;;;;9.50;6.30;;;24.90;54.90;;;;;;229715;1250;22933;-55
2023/09/05 20:39:58;;;;;;;8.30;6.00;;;24.90;54.90;;;;;;229925;1250;22760;-56
2023/09/05 20:45:01;;;;;;;6.60;5.10;;;24.80;55.10;;;;;;229800;1254;22274;-56
2023/09/05 20:50:04;;;;;;;9.40;5.70;;;24.90;56.00;;;;;;229779;1253;22303;-56
2023/09/05 20:55:08;;;;;;;6.60;5.40;;;24.90;55.90;;;;;;229698;1256;22431;-56
2023/09/05 21:00:11;;;;;;;5.80;5.30;;;25.00;55.60;;;;;;229777;1254;22730;-56
2023/09/05 21:05:13;;;;;;;6.00;5.40;;;25.00;56.20;;;;;;229762;1252;22385;-56
2023/09/05 21:10:16;;;;;;;8.00;5.40;;;25.00;55.60;;;;;;229799;1250;23754;-48
2023/09/05 21:15:18;;;;;;;6.80;5.30;;;25.00;56.10;;;;;;229485;1248;22272;-48
2023/09/05 21:20:21;;;;;;;6.90;5.30;;;25.00;56.30;;;;;;229602;1255;22983;-52
2023/09/05 21:25:23;;;;;;;7.60;5.50;;;25.00;55.70;;;;;;229645;1247;22268;-49
2023/09/05 21:30:28;;;;;;;6.50;5.80;;;25.00;56.50;;;;;;229578;1247;22321;-46
2023/09/05 21:35:30;;;;;;;6.50;5.50;;;25.00;55.70;;;;;;229671;1253;22639;-49
2023/09/05 21:40:33;;;;;;;5.10;4.60;;;24.80;55.90;;;;;;229893;1258;22301;-51
2023/09/05 21:45:35;;;;;;;8.00;5.20;;;24.60;56.30;;;;;;229677;1255;22277;-50
2023/09/05 21:50:38;;;;;;;9.50;5.90;;;24.70;55.80;;;;;;225327;1253;24231;-49
2023/09/05 21:55:40;;;;;;;5.80;5.20;;;24.70;56.30;;;;;;220864;1253;23877;-52
2023/09/05 22:00:45;;;;;;;6.40;5.70;;;24.50;56.30;;;;;;229817;1256;22278;-46
2023/09/05 22:05:48;;;;;;;6.20;5.30;;;24.60;56.20;;;;;;229770;1249;22301;-46
2023/09/05 22:10:51;;;;;;;6.50;4.90;;;24.60;55.90;;;;;;229776;1247;22279;-48
2023/09/05 22:15:54;;;;;;;7.20;5.50;;;24.70;55.80;;;;;;229545;1253;22395;-48
2023/09/05 22:20:59;;;;;;;10.20;6.50;;;24.60;55.70;;;;;;229827;1249;22267;-49
2023/09/05 22:26:02;;;;;;;8.40;5.20;;;24.60;55.70;;;;;;229612;1253;22276;-52
2023/09/05 22:31:05;;;;;;;7.50;5.50;;;24.60;55.80;;;;;;229661;1254;22388;-49
2023/09/05 22:36:07;;;;;;;7.30;6.00;;;24.60;55.70;;;;;;229478;1250;23905;-49
2023/09/05 22:41:10;;;;;;;7.80;6.00;;;24.60;56.30;;;;;;229639;1253;22297;-51
2023/09/05 22:46:12;;;;;;;6.50;5.70;;;24.60;55.70;;;;;;229678;1254;22276;-50
2023/09/05 22:51:15;;;;;;;7.90;5.30;;;24.70;55.90;;;;;;229753;1253;23072;-46
2023/09/05 22:56:19;;;;;;;7.10;5.70;;;24.60;55.70;;;;;;229798;1252;22299;-48
2023/09/05 23:01:21;;;;;;;5.90;5.40;;;24.60;55.70;;;;;;229826;1246;22513;-49
2023/09/05 23:06:24;;;;;;;5.40;5.00;;;24.60;55.90;;;;;;229592;1252;22306;-48
2023/09/05 23:11:26;;;;;;;7.10;6.40;;;24.60;56.10;;;;;;229556;1254;22312;-50
2023/09/05 23:16:29;;;;;;;6.70;6.00;;;24.60;55.90;;;;;;229669;1256;22272;-49
2023/09/05 23:21:32;;;;;;;8.40;5.60;;;24.60;56.10;;;;;;229702;1256;22318;-47
2023/09/05 23:26:35;;;;;;;7.10;5.80;;;24.60;56.10;;;;;;229846;1249;22306;-47
2023/09/05 23:31:38;;;;;;;9.00;5.80;;;24.50;56.10;;;;;;224326;1260;24203;-46
2023/09/05 23:36:41;;;;;;;6.20;5.30;;;24.50;56.20;;;;;;229936;1253;23154;-49
2023/09/05 23:41:44;;;;;;;7.60;5.60;;;24.40;56.30;;;;;;229690;1260;22395;-49
2023/09/05 23:46:46;;;;;;;7.40;5.70;;;24.50;56.60;;;;;;229732;1250;22615;-47
2023/09/05 23:51:49;;;;;;;6.10;5.50;;;24.50;56.20;;;;;;229913;1257;22365;-49
2023/09/05 23:56:51;;;;;;;7.00;6.30;;;24.50;56.20;;;;;;229988;1250;23234;-46
